New Braunfels, Texas
Current Conditions -  °F | °C
As of 10:51 PM on Saturday 25 Oct 2014 (Local Time) from KBAZ Reporting Station
Clear Clear  
Wind Chill: 70°   Ceiling: Unl
Heat Index: 70°   Visibility: 10mi
Dew Point: 54°   Wind: 9mph
Humidity: 57%   Direction: 160°SSE
Pressure: 30.09"   Gusts: NA
Location:  29.7°N, 98.12°W
Report Text: KBAZ 260351Z AUTO 16008KT 10SM CLR 21/12 A3009 RMK AO2 SLP180 T02110122
Loading
Personal Weather Stations






























Interactive Weather Map
Tropical Storm Tracking
New forecast layout! Learn more

10-Day Weather Forecast

Advertisements
Track Severe Weather on mobile